Avalon, Missouri
Current Conditions -  °F | °C
As of 8:15 AM on Thursday 29 Jan 2015 (Local Time) from KGPH Reporting Station
Overcast Overcast  
Wind Chill: -2°   Ceiling: 2400
Heat Index:   Visibility: 10mi
Dew Point: -1°   Wind: 15mph
Humidity: 75%   Direction: 340°NNW
Pressure: 30.23"   Gusts: 22mph
Location:  39.66°N, 93.44°W
Report Text: KGPH 291415Z AUTO 34013G19KT 10SM OVC024 03/M01 A3023 RMK AO2
Loading
Personal Weather Stations






























Interactive Weather Map New forecast layout! Learn more

10-Day Weather Forecast

Advertisements
Track Severe Weather on mobile